Time;durP1;ratioP1;P1;durP2;ratioP2;P2;SDS_P1;SDS_P2;PMS_P1;PMS_P2;Temp;Humidity;BMP_temperature;BMP_pressure;BME280_temperature;BME280_humidity;BME280_pressure;Samples;Min_cycle;Max_cycle;Signal;HPM_P1;HPM_P2
2023/07/08 00:00:22;;;;;;;;;;;16.00;99.90;;;;;;5134343;27;19927;-80
2023/07/08 00:02:48;;;;;;;;;;;15.90;99.90;;;;;;5134843;27;19923;-81
2023/07/08 00:05:14;;;;;;;;;;;15.80;99.90;;;;;;5118433;27;19926;-83
2023/07/08 00:07:40;;;;;;;;;;;15.80;99.90;;;;;;5135509;27;20359;-78
2023/07/08 00:10:25;;;;;;;;;;;15.80;99.90;;;;;;5105066;28;20673;-77
2023/07/08 00:12:52;;;;;;;;;;;15.70;99.90;;;;;;5114589;28;19919;-81
2023/07/08 00:15:20;;;;;;;;;;;15.70;99.90;;;;;;5114698;28;20021;-79
2023/07/08 00:17:46;;;;;;;;;;;15.60;99.90;;;;;;5098281;28;19957;-83
2023/07/08 00:20:23;;;;;;;;;;;15.60;99.90;;;;;;5096747;28;20022;-77
2023/07/08 00:22:51;;;;;;;;;;;15.60;99.90;;;;;;5114877;28;20318;-80
2023/07/08 00:25:20;;;;;;;;;;;15.60;99.90;;;;;;5112082;28;19967;-79
2023/07/08 00:27:47;;;;;;;;;;;15.50;99.90;;;;;;5093877;28;20338;-81
2023/07/08 00:30:23;;;;;;;;;;;15.40;99.90;;;;;;5111692;28;19920;-83
2023/07/08 00:32:53;;;;;;;;;;;15.40;99.90;;;;;;5094428;28;20417;-83
2023/07/08 00:35:22;;;;;;;;;;;15.30;99.90;;;;;;5077302;28;19931;-80
2023/07/08 00:37:52;;;;;;;;;;;15.30;99.90;;;;;;5094117;28;19987;-80
2023/07/08 00:40:19;;;;;;;;;;;15.30;99.90;;;;;;5092984;28;19920;-78
2023/07/08 00:42:45;;;;;;;;;;;15.20;99.90;;;;;;5094333;28;19919;-81
2023/07/08 00:45:29;;;;;;;;;;;15.20;99.90;;;;;;5093540;28;20277;-77
2023/07/08 00:47:56;;;;;;;;;;;15.20;99.90;;;;;;5093735;28;20023;-78
2023/07/08 00:50:23;;;;;;;;;;;15.10;99.90;;;;;;5093748;28;19960;-81
2023/07/08 00:52:48;;;;;;;;;;;15.10;99.90;;;;;;5114146;28;20376;-83
2023/07/08 00:55:14;;;;;;;;;;;15.10;99.90;;;;;;5114337;28;19923;-78
2023/07/08 00:57:43;;;;;;;;;;;15.10;99.90;;;;;;5097361;28;19920;-79
2023/07/08 01:00:11;;;;;;;;;;;15.00;99.90;;;;;;5113832;28;19919;-81
2023/07/08 01:02:48;;;;;;;;;;;15.00;99.90;;;;;;5097224;28;19934;-80
2023/07/08 01:05:21;;;;;;;;;;;14.90;99.90;;;;;;5114119;28;20480;-81
2023/07/08 01:07:50;;;;;;;;;;;14.80;99.90;;;;;;5097205;28;20002;-80
2023/07/08 01:10:18;;;;;;;;;;;14.80;99.90;;;;;;5114458;28;20288;-82
2023/07/08 01:12:46;;;;;;;;;;;14.80;99.90;;;;;;5114445;28;19920;-84
2023/07/08 01:15:12;;;;;;;;;;;14.70;99.90;;;;;;5113985;28;19924;-78
2023/07/08 01:17:39;;;;;;;;;;;14.70;99.90;;;;;;5114683;28;19931;-80
2023/07/08 01:20:05;;;;;;;;;;;14.70;99.90;;;;;;5114589;28;19920;-78
2023/07/08 01:22:34;;;;;;;;;;;14.60;99.90;;;;;;5096635;28;19935;-79
2023/07/08 01:25:03;;;;;;;;;;;14.50;99.90;;;;;;5132773;27;19946;-83
2023/07/08 01:27:33;;;;;;;;;;;14.50;99.90;;;;;;5135548;27;19926;-79
2023/07/08 01:29:59;;;;;;;;;;;14.40;99.90;;;;;;5134643;27;19919;-81
2023/07/08 01:32:28;;;;;;;;;;;14.30;99.90;;;;;;5134857;27;20333;-80
2023/07/08 01:35:02;;;;;;;;;;;14.30;99.90;;;;;;5100403;27;20017;-79
2023/07/08 01:37:29;;;;;;;;;;;14.20;99.90;;;;;;5117101;27;20041;-81
2023/07/08 01:39:56;;;;;;;;;;;14.20;99.90;;;;;;5134522;27;19920;-78
2023/07/08 01:42:22;;;;;;;;;;;14.20;99.90;;;;;;5116655;27;20021;-81
2023/07/08 01:44:49;;;;;;;;;;;14.10;99.90;;;;;;5116807;27;20011;-79
2023/07/08 01:47:17;;;;;;;;;;;14.00;99.90;;;;;;5133401;27;19928;-79
2023/07/08 01:49:44;;;;;;;;;;;14.00;99.90;;;;;;5133324;27;19995;-80
2023/07/08 01:52:17;;;;;;;;;;;14.00;99.90;;;;;;5133838;27;19976;-79
2023/07/08 01:54:42;;;;;;;;;;;13.90;99.90;;;;;;5134152;27;19920;-81
2023/07/08 01:57:08;;;;;;;;;;;13.90;99.90;;;;;;5133598;27;20444;-79
2023/07/08 01:59:35;;;;;;;;;;;13.90;99.90;;;;;;5133188;27;19945;-79
2023/07/08 02:02:00;;;;;;;;;;;13.90;99.90;;;;;;5132748;27;19984;-81
2023/07/08 02:04:28;;;;;;;;;;;13.80;99.90;;;;;;5116060;27;19923;-80
2023/07/08 02:06:55;;;;;;;;;;;13.80;99.90;;;;;;5133599;27;19923;-79
2023/07/08 02:09:21;;;;;;;;;;;13.80;99.90;;;;;;5116157;27;19923;-83
2023/07/08 02:11:46;;;;;;;;;;;13.70;99.90;;;;;;5133748;27;20413;-79
2023/07/08 02:14:12;;;;;;;;;;;13.70;99.90;;;;;;5115929;27;19926;-80
2023/07/08 02:16:38;;;;;;;;;;;13.70;99.90;;;;;;5115516;27;19920;-82
2023/07/08 02:19:03;;;;;;;;;;;13.70;99.90;;;;;;5116341;27;19975;-80
2023/07/08 02:21:30;;;;;;;;;;;13.70;99.90;;;;;;5133885;27;19927;-79
2023/07/08 02:23:56;;;;;;;;;;;13.60;99.90;;;;;;5099044;27;19940;-79
2023/07/08 02:26:22;;;;;;;;;;;13.60;99.90;;;;;;5098893;27;20242;-79
2023/07/08 02:28:48;;;;;;;;;;;13.60;99.90;;;;;;5116121;27;19926;-78
2023/07/08 02:31:13;;;;;;;;;;;13.60;99.90;;;;;;5133658;27;19919;-79
2023/07/08 02:33:41;;;;;;;;;;;13.60;99.90;;;;;;5134480;27;19919;-78
2023/07/08 02:36:06;;;;;;;;;;;13.50;99.90;;;;;;5133561;27;19992;-81
2023/07/08 02:38:33;;;;;;;;;;;13.50;99.90;;;;;;5115372;27;20401;-77
2023/07/08 02:40:59;;;;;;;;;;;13.50;99.90;;;;;;5115565;27;20361;-80
2023/07/08 02:43:25;;;;;;;;;;;13.50;99.90;;;;;;5133761;27;20565;-79
2023/07/08 02:45:52;;;;;;;;;;;13.40;99.90;;;;;;5133279;27;19923;-80
2023/07/08 02:48:18;;;;;;;;;;;13.40;99.90;;;;;;5115397;27;19946;-82
2023/07/08 02:50:44;;;;;;;;;;;13.40;99.90;;;;;;5101007;28;20019;-79
2023/07/08 02:53:09;;;;;;;;;;;13.40;99.90;;;;;;5111835;28;20436;-79
2023/07/08 02:55:35;;;;;;;;;;;13.40;99.90;;;;;;5111257;28;19931;-84
2023/07/08 02:58:00;;;;;;;;;;;13.40;99.90;;;;;;5095136;28;19924;-81
2023/07/08 03:00:26;;;;;;;;;;;13.40;99.90;;;;;;5094060;28;19958;-78
2023/07/08 03:02:51;;;;;;;;;;;13.40;99.90;;;;;;5111342;28;20261;-78
2023/07/08 03:05:17;;;;;;;;;;;13.50;99.90;;;;;;5112118;28;19919;-80
2023/07/08 03:07:44;;;;;;;;;;;13.50;99.90;;;;;;5093977;28;20315;-81
2023/07/08 03:10:10;;;;;;;;;;;13.50;99.90;;;;;;5111605;28;20335;-83
2023/07/08 03:12:37;;;;;;;;;;;13.50;99.90;;;;;;5076776;28;19931;-78
2023/07/08 03:15:03;;;;;;;;;;;13.50;99.90;;;;;;5093242;28;20062;-82
2023/07/08 03:17:32;;;;;;;;;;;13.50;99.90;;;;;;5110663;28;19919;-82
2023/07/08 03:19:57;;;;;;;;;;;13.50;99.90;;;;;;5110643;28;19919;-82
2023/07/08 03:22:23;;;;;;;;;;;13.60;99.90;;;;;;5110366;28;19935;-85
2023/07/08 03:24:48;;;;;;;;;;;13.60;99.90;;;;;;5111092;28;19930;-79
2023/07/08 03:27:14;;;;;;;;;;;13.60;99.90;;;;;;5110952;28;19920;-80
2023/07/08 03:29:40;;;;;;;;;;;13.60;99.90;;;;;;5111424;28;20010;-81
2023/07/08 03:32:07;;;;;;;;;;;13.70;99.90;;;;;;5111941;28;19940;-81
2023/07/08 03:34:33;;;;;;;;;;;13.70;99.90;;;;;;5111710;28;19919;-78
2023/07/08 03:37:00;;;;;;;;;;;13.70;99.90;;;;;;5094409;28;19972;-78
2023/07/08 03:39:27;;;;;;;;;;;13.70;99.90;;;;;;5094611;28;20575;-80
2023/07/08 03:41:53;;;;;;;;;;;13.70;99.90;;;;;;5094825;28;20003;-82
2023/07/08 03:44:24;;;;;;;;;;;13.70;99.90;;;;;;5096109;28;19976;-78
2023/07/08 03:46:49;;;;;;;;;;;13.70;99.90;;;;;;5111624;28;20003;-82
2023/07/08 03:49:16;;;;;;;;;;;13.70;99.90;;;;;;5112278;28;20010;-80
2023/07/08 03:51:42;;;;;;;;;;;13.70;99.90;;;;;;5113928;28;19927;-79
2023/07/08 03:54:12;;;;;;;;;;;13.80;99.90;;;;;;5128600;28;19984;-80
2023/07/08 03:56:43;;;;;;;;;;;13.80;99.90;;;;;;5095330;28;19930;-81
2023/07/08 03:59:09;;;;;;;;;;;13.90;99.90;;;;;;5094188;28;19924;-83
2023/07/08 04:01:34;;;;;;;;;;;13.90;99.90;;;;;;5093933;28;19924;-77
2023/07/08 04:04:00;;;;;;;;;;;14.10;99.90;;;;;;5094640;28;19924;-82
2023/07/08 04:06:26;;;;;;;;;;;14.20;99.90;;;;;;5094877;28;19919;-83
2023/07/08 04:08:52;;;;;;;;;;;14.30;99.90;;;;;;5095567;28;19923;-84
2023/07/08 04:11:19;;;;;;;;;;;14.40;99.90;;;;;;5112049;28;19920;-80
2023/07/08 04:13:45;;;;;;;;;;;14.50;99.90;;;;;;5112247;28;19924;-80
2023/07/08 04:16:16;;;;;;;;;;;14.50;99.90;;;;;;5111142;28;19924;-81
2023/07/08 04:18:42;;;;;;;;;;;14.50;99.90;;;;;;5111580;28;19924;-79
2023/07/08 04:21:08;;;;;;;;;;;14.60;99.90;;;;;;5094719;28;19932;-82
2023/07/08 04:23:33;;;;;;;;;;;14.60;99.90;;;;;;5104389;28;19974;-77
2023/07/08 04:26:00;;;;;;;;;;;14.70;99.90;;;;;;5075606;28;19920;-85
2023/07/08 04:28:25;;;;;;;;;;;14.80;99.90;;;;;;5095101;28;19924;-81
2023/07/08 04:30:51;;;;;;;;;;;14.90;99.90;;;;;;5095309;28;19924;-82
2023/07/08 04:33:17;;;;;;;;;;;15.00;99.90;;;;;;5095318;28;19924;-82
2023/07/08 04:35:43;;;;;;;;;;;15.00;99.90;;;;;;5094923;28;20009;-83
2023/07/08 04:38:22;;;;;;;;;;;15.10;99.90;;;;;;5078422;28;20353;-85
2023/07/08 04:40:49;;;;;;;;;;;15.20;99.90;;;;;;5091271;28;19928;-85
2023/07/08 04:43:15;;;;;;;;;;;15.30;99.90;;;;;;5077627;28;19927;-81
2023/07/08 04:45:41;;;;;;;;;;;15.30;99.90;;;;;;5077489;28;19932;-82
2023/07/08 04:48:08;;;;;;;;;;;15.40;99.90;;;;;;5094476;28;19924;-80
2023/07/08 04:50:44;;;;;;;;;;;15.50;99.90;;;;;;5081952;28;19927;-82
2023/07/08 04:53:10;;;;;;;;;;;15.60;99.90;;;;;;5095217;28;20255;-80
2023/07/08 04:55:44;;;;;;;;;;;15.60;99.90;;;;;;5094269;28;19972;-79
2023/07/08 04:58:10;;;;;;;;;;;15.70;99.90;;;;;;5094106;28;19927;-81
2023/07/08 05:00:35;;;;;;;;;;;15.90;99.90;;;;;;5060490;28;19920;-81
2023/07/08 05:03:01;;;;;;;;;;;16.00;99.90;;;;;;5077606;28;19924;-85
2023/07/08 05:05:26;;;;;;;;;;;16.10;99.90;;;;;;5095813;28;19942;-84
2023/07/08 05:07:52;;;;;;;;;;;16.20;99.90;;;;;;5076809;28;20610;-84
2023/07/08 05:10:18;;;;;;;;;;;16.30;99.90;;;;;;5093641;28;19950;-79
2023/07/08 05:12:44;;;;;;;;;;;16.30;99.90;;;;;;5077244;28;19924;-81
2023/07/08 05:15:11;;;;;;;;;;;16.40;99.90;;;;;;5093933;28;20350;-85
2023/07/08 05:17:37;;;;;;;;;;;16.50;99.90;;;;;;5094145;28;19920;-82
2023/07/08 05:20:04;;;;;;;;;;;16.60;99.90;;;;;;5097048;28;19924;-78
2023/07/08 05:22:29;;;;;;;;;;;16.70;99.90;;;;;;5081417;28;20266;-79
2023/07/08 05:24:55;;;;;;;;;;;16.80;99.90;;;;;;5131479;27;19927;-80
2023/07/08 05:27:22;;;;;;;;;;;16.80;99.90;;;;;;5117323;27;20367;-83
2023/07/08 05:29:48;;;;;;;;;;;16.90;99.90;;;;;;5117480;27;19928;-81
2023/07/08 05:32:13;;;;;;;;;;;17.00;99.90;;;;;;5134765;27;20057;-80
2023/07/08 05:34:39;;;;;;;;;;;17.10;99.90;;;;;;5117815;27;19920;-82
2023/07/08 05:37:05;;;;;;;;;;;17.10;99.90;;;;;;5099515;27;19923;-82
2023/07/08 05:39:32;;;;;;;;;;;17.20;99.90;;;;;;5117123;27;20019;-79
2023/07/08 05:41:57;;;;;;;;;;;17.30;99.90;;;;;;5134824;27;19923;-83
2023/07/08 05:44:23;;;;;;;;;;;17.30;99.90;;;;;;5134677;27;20384;-77
2023/07/08 05:46:49;;;;;;;;;;;17.40;99.90;;;;;;5126973;27;19930;-80
2023/07/08 05:49:15;;;;;;;;;;;17.50;99.90;;;;;;5116571;27;20343;-81
2023/07/08 05:51:41;;;;;;;;;;;17.50;99.90;;;;;;5116584;27;19980;-83
2023/07/08 05:54:09;;;;;;;;;;;17.60;99.90;;;;;;5135140;27;19927;-79
2023/07/08 05:56:35;;;;;;;;;;;17.60;99.90;;;;;;5134563;27;20369;-80
2023/07/08 05:59:01;;;;;;;;;;;17.60;99.90;;;;;;5117427;27;19924;-82
2023/07/08 06:01:26;;;;;;;;;;;17.70;99.90;;;;;;5135651;27;19927;-82
2023/07/08 06:03:52;;;;;;;;;;;17.80;99.90;;;;;;5133640;27;19920;-82
2023/07/08 06:06:18;;;;;;;;;;;17.90;99.90;;;;;;5100838;27;20010;-81
2023/07/08 06:08:43;;;;;;;;;;;18.00;99.90;;;;;;5134602;27;19923;-83
2023/07/08 06:11:09;;;;;;;;;;;18.00;99.90;;;;;;5134469;27;19923;-79
2023/07/08 06:13:34;;;;;;;;;;;18.10;99.90;;;;;;5116823;27;20412;-76
2023/07/08 06:16:00;;;;;;;;;;;18.20;99.90;;;;;;5113018;28;19920;-84
2023/07/08 06:18:27;;;;;;;;;;;18.20;99.90;;;;;;5097145;28;19919;-80
2023/07/08 06:20:55;;;;;;;;;;;18.30;99.90;;;;;;5096190;28;20030;-80
2023/07/08 06:23:23;;;;;;;;;;;18.40;99.90;;;;;;5113230;27;19939;-82
2023/07/08 06:25:48;;;;;;;;;;;18.50;99.90;;;;;;5098873;27;19920;-80
2023/07/08 06:28:14;;;;;;;;;;;18.50;99.90;;;;;;5116047;27;19927;-83
2023/07/08 06:30:40;;;;;;;;;;;18.60;99.90;;;;;;5115828;27;19976;-80
2023/07/08 06:33:05;;;;;;;;;;;18.70;99.90;;;;;;5116415;27;19919;-81
2023/07/08 06:35:31;;;;;;;;;;;18.70;99.90;;;;;;5115911;27;19923;-83
2023/07/08 06:37:57;;;;;;;;;;;18.90;99.90;;;;;;5099382;27;19926;-76
2023/07/08 06:40:22;;;;;;;;;;;18.90;99.90;;;;;;5115784;27;19926;-83
2023/07/08 06:42:48;;;;;;;;;;;19.00;99.90;;;;;;5119941;27;19927;-82
2023/07/08 06:45:13;;;;;;;;;;;19.10;99.90;;;;;;5120041;27;20006;-79
2023/07/08 06:47:39;;;;;;;;;;;19.20;99.90;;;;;;5136513;27;19919;-83
2023/07/08 06:50:05;;;;;;;;;;;19.30;99.90;;;;;;5110177;27;19942;-80
2023/07/08 06:52:34;;;;;;;;;;;19.40;99.90;;;;;;5116716;27;20287;-82
2023/07/08 06:55:01;;;;;;;;;;;19.60;99.90;;;;;;5082165;27;20379;-79
2023/07/08 06:57:33;;;;;;;;;;;19.70;99.90;;;;;;5115869;27;19920;-81
2023/07/08 07:00:01;;;;;;;;;;;19.90;99.90;;;;;;5098520;27;19934;-79
2023/07/08 07:02:27;;;;;;;;;;;20.00;99.90;;;;;;5115708;27;19923;-77
2023/07/08 07:04:53;;;;;;;;;;;20.10;99.90;;;;;;5115378;27;19930;-82
2023/07/08 07:07:18;;;;;;;;;;;20.30;99.90;;;;;;5115822;27;20380;-82
2023/07/08 07:09:44;;;;;;;;;;;20.40;99.90;;;;;;5081548;27;19920;-82
2023/07/08 07:12:10;;;;;;;;;;;20.60;99.90;;;;;;5115411;27;19923;-83
2023/07/08 07:14:35;;;;;;;;;;;20.70;99.90;;;;;;5098750;27;19967;-78
2023/07/08 07:17:01;;;;;;;;;;;20.80;99.90;;;;;;5098475;27;19936;-77
2023/07/08 07:19:28;;;;;;;;;;;20.90;99.90;;;;;;5115216;27;19964;-80
2023/07/08 07:21:53;;;;;;;;;;;21.00;99.90;;;;;;5097640;27;19932;-80
2023/07/08 07:24:19;;;;;;;;;;;21.20;99.90;;;;;;5084505;28;19951;-83
2023/07/08 07:26:44;;;;;;;;;;;21.20;99.90;;;;;;5075417;28;19926;-80
2023/07/08 07:29:10;;;;;;;;;;;21.40;99.90;;;;;;5075108;28;20276;-84
2023/07/08 07:31:36;;;;;;;;;;;21.50;99.90;;;;;;5074170;28;20436;-79
2023/07/08 07:34:01;;;;;;;;;;;21.60;99.90;;;;;;5091247;28;19941;-79
2023/07/08 07:36:28;;;;;;;;;;;21.80;99.90;;;;;;5091705;28;19920;-82
2023/07/08 07:38:54;;;;;;;;;;;21.90;99.90;;;;;;5076780;28;19924;-83
2023/07/08 07:41:19;;;;;;;;;;;22.00;99.90;;;;;;5111632;28;19924;-82
2023/07/08 07:43:45;;;;;;;;;;;22.10;99.90;;;;;;5111183;28;19926;-80
2023/07/08 07:46:11;;;;;;;;;;;22.20;99.90;;;;;;5094571;28;19934;-79
2023/07/08 07:48:37;;;;;;;;;;;22.10;99.90;;;;;;5111901;28;20290;-79
2023/07/08 07:51:02;;;;;;;;;;;22.40;99.90;;;;;;5094486;28;19930;-79
2023/07/08 07:53:28;;;;;;;;;;;22.60;99.90;;;;;;5091146;28;19927;-80
2023/07/08 07:55:57;;;;;;;;;;;22.60;99.90;;;;;;5090456;28;19973;-81
2023/07/08 07:58:23;;;;;;;;;;;22.80;99.90;;;;;;5090439;28;19931;-78
2023/07/08 08:00:48;;;;;;;;;;;22.90;99.90;;;;;;5074026;28;19924;-81
2023/07/08 08:03:16;;;;;;;;;;;22.90;99.90;;;;;;5078222;28;19920;-83
2023/07/08 08:05:42;;;;;;;;;;;22.90;99.90;;;;;;5095876;28;19935;-77
2023/07/08 08:08:07;;;;;;;;;;;23.00;99.90;;;;;;5094828;28;19920;-81
2023/07/08 08:10:34;;;;;;;;;;;23.00;99.90;;;;;;5095461;28;19955;-84
2023/07/08 08:12:59;;;;;;;;;;;23.10;99.90;;;;;;5091377;28;19927;-82
2023/07/08 08:15:25;;;;;;;;;;;23.20;99.90;;;;;;5101670;28;19919;-81
2023/07/08 08:17:51;;;;;;;;;;;23.30;99.90;;;;;;5117718;28;20657;-78
2023/07/08 08:20:21;;;;;;;;;;;23.40;99.90;;;;;;5083006;28;20001;-83
2023/07/08 08:22:47;;;;;;;;;;;23.40;99.90;;;;;;5115684;28;19930;-78
2023/07/08 08:25:13;;;;;;;;;;;23.50;99.90;;;;;;5115893;27;20017;-77
2023/07/08 08:27:39;;;;;;;;;;;23.50;99.90;;;;;;5135453;27;20385;-79
2023/07/08 08:30:08;;;;;;;;;;;23.60;99.90;;;;;;5135624;27;19926;-82
2023/07/08 08:32:39;;;;;;;;;;;23.70;99.90;;;;;;5135747;27;19955;-79
2023/07/08 08:35:08;;;;;;;;;;;23.80;99.90;;;;;;5136962;27;19926;-83
2023/07/08 08:37:33;;;;;;;;;;;23.80;99.90;;;;;;5118670;27;20563;-79
2023/07/08 08:40:02;;;;;;;;;;;23.90;99.90;;;;;;5118072;27;19923;-80
2023/07/08 08:42:34;;;;;;;;;;;24.00;99.90;;;;;;5117892;27;19927;-83
2023/07/08 08:45:01;;;;;;;;;;;24.20;99.90;;;;;;5134597;27;20006;-81
2023/07/08 08:47:38;;;;;;;;;;;24.40;99.90;;;;;;5135191;27;19923;-81
2023/07/08 08:50:12;;;;;;;;;;;24.50;99.90;;;;;;5134658;27;19923;-79
2023/07/08 08:52:39;;;;;;;;;;;24.70;99.90;;;;;;5135036;27;20010;-79
2023/07/08 08:55:10;;;;;;;;;;;24.80;99.90;;;;;;5117336;27;20006;-85
2023/07/08 08:57:49;;;;;;;;;;;25.00;99.90;;;;;;5136385;27;20276;-81
2023/07/08 09:00:18;;;;;;;;;;;25.10;99.90;;;;;;5117959;27;19923;-81
2023/07/08 09:02:53;;;;;;;;;;;25.10;99.90;;;;;;5134780;27;19923;-81
2023/07/08 09:05:19;;;;;;;;;;;25.10;99.90;;;;;;5134550;27;19963;-77
2023/07/08 09:07:51;;;;;;;;;;;25.20;99.90;;;;;;5117470;27;19961;-78
2023/07/08 09:10:29;;;;;;;;;;;25.30;99.90;;;;;;5134752;27;19955;-79
2023/07/08 09:12:55;;;;;;;;;;;25.40;99.90;;;;;;5107750;28;20442;-78
2023/07/08 09:15:21;;;;;;;;;;;25.60;99.90;;;;;;5113928;28;19970;-79
2023/07/08 09:17:49;;;;;;;;;;;25.70;99.90;;;;;;5096431;28;19963;-79
2023/07/08 09:20:24;;;;;;;;;;;25.70;99.90;;;;;;5096863;28;19941;-85
2023/07/08 09:23:08;;;;;;;;;;;25.80;99.90;;;;;;5113927;28;19923;-78
2023/07/08 09:25:37;;;;;;;;;;;25.90;99.90;;;;;;5113729;28;19924;-78
2023/07/08 09:28:03;;;;;;;;;;;25.90;99.90;;;;;;5113916;28;19927;-80
2023/07/08 09:30:30;;;;;;;;;;;26.00;99.80;;;;;;5115068;28;19923;-83
2023/07/08 09:32:56;;;;;;;;;;;26.00;99.50;;;;;;5095522;27;19995;-81
2023/07/08 09:35:27;;;;;;;;;;;26.00;99.90;;;;;;5134201;27;20259;-81
2023/07/08 09:37:53;;;;;;;;;;;26.10;99.90;;;;;;5116869;27;20288;-79
2023/07/08 09:40:20;;;;;;;;;;;26.20;99.40;;;;;;5100078;27;19923;-80
2023/07/08 09:42:50;;;;;;;;;;;26.30;98.80;;;;;;5133916;27;19931;-80
2023/07/08 09:45:18;;;;;;;;;;;26.40;99.50;;;;;;5133383;27;20394;-81
2023/07/08 09:47:45;;;;;;;;;;;26.50;98.60;;;;;;5116919;27;19920;-82
2023/07/08 09:50:31;;;;;;;;;;;26.60;98.50;;;;;;5132904;27;20014;-80
2023/07/08 09:52:59;;;;;;;;;;;26.70;99.90;;;;;;5133714;27;19919;-82
2023/07/08 09:55:25;;;;;;;;;;;26.80;99.60;;;;;;5116217;27;20006;-82
2023/07/08 09:57:53;;;;;;;;;;;26.90;97.10;;;;;;5133263;27;20027;-78
2023/07/08 10:00:27;;;;;;;;;;;26.90;98.30;;;;;;5116124;27;19935;-83
2023/07/08 10:02:57;;;;;;;;;;;27.10;96.10;;;;;;5133672;27;19920;-80
2023/07/08 10:05:25;;;;;;;;;;;27.10;98.50;;;;;;5133723;27;19927;-80
2023/07/08 10:07:55;;;;;;;;;;;27.10;99.00;;;;;;5133931;27;20359;-81
2023/07/08 10:10:32;;;;;;;;;;;27.20;97.50;;;;;;5097186;28;19923;-80
2023/07/08 10:12:59;;;;;;;;;;;27.30;96.90;;;;;;5078423;28;19920;-82
2023/07/08 10:15:35;;;;;;;;;;;27.40;97.70;;;;;;5112600;28;20372;-77
2023/07/08 10:18:01;;;;;;;;;;;27.40;97.60;;;;;;5112421;28;20432;-82
2023/07/08 10:20:29;;;;;;;;;;;27.50;97.80;;;;;;5112536;28;20002;-78
2023/07/08 10:23:00;;;;;;;;;;;27.60;97.70;;;;;;5113727;28;20022;-79
2023/07/08 10:25:43;;;;;;;;;;;27.70;97.40;;;;;;5113305;28;19924;-80
2023/07/08 10:28:32;;;;;;;;;;;27.80;94.60;;;;;;5120129;27;20014;-79
2023/07/08 10:31:16;;;;;;;;;;;27.80;97.50;;;;;;5133386;27;19926;-80
2023/07/08 10:33:41;;;;;;;;;;;28.00;96.70;;;;;;5134179;27;19919;-80
2023/07/08 10:36:21;;;;;;;;;;;28.20;95.40;;;;;;5134335;27;19926;-78
2023/07/08 10:38:58;;;;;;;;;;;28.20;94.90;;;;;;5132886;27;20025;-80
2023/07/08 10:41:29;;;;;;;;;;;28.30;96.60;;;;;;5133075;27;19938;-78
2023/07/08 10:44:04;;;;;;;;;;;28.40;93.90;;;;;;5133077;27;20326;-79
2023/07/08 10:46:39;;;;;;;;;;;28.40;94.20;;;;;;5132669;27;19926;-78
2023/07/08 10:49:28;;;;;;;;;;;28.50;93.70;;;;;;5132423;27;19919;-77
2023/07/08 10:52:12;;;;;;;;;;;28.60;95.10;;;;;;5115538;27;19929;-80
2023/07/08 10:54:56;;;;;;;;;;;28.80;95.50;;;;;;5132584;27;19924;-83
2023/07/08 10:57:40;;;;;;;;;;;28.90;93.40;;;;;;5115551;27;20260;-81
2023/07/08 11:00:09;;;;;;;;;;;29.00;94.10;;;;;;5131794;27;19923;-79
2023/07/08 11:02:56;;;;;;;;;;;29.10;93.00;;;;;;5132552;27;20299;-83
2023/07/08 11:05:37;;;;;;;;;;;29.10;92.80;;;;;;5132093;27;19924;-80
2023/07/08 11:08:14;;;;;;;;;;;29.20;91.60;;;;;;5132326;27;19962;-79
2023/07/08 11:11:04;;;;;;;;;;;29.20;92.20;;;;;;5132533;27;20087;-77
2023/07/08 11:13:31;;;;;;;;;;;29.30;90.10;;;;;;5132673;27;19923;-83
2023/07/08 11:16:12;;;;;;;;;;;29.40;92.20;;;;;;5132409;27;19919;-80
2023/07/08 11:18:41;;;;;;;;;;;29.50;90.50;;;;;;5132148;27;19923;-81
2023/07/08 11:21:08;;;;;;;;;;;29.60;90.30;;;;;;5131608;27;20300;-79
2023/07/08 11:23:40;;;;;;;;;;;29.70;91.20;;;;;;5131588;27;20376;-79
2023/07/08 11:26:24;;;;;;;;;;;29.80;89.40;;;;;;5114623;27;20414;-82
2023/07/08 11:28:56;;;;;;;;;;;29.90;90.20;;;;;;5133723;27;19980;-81
2023/07/08 11:31:22;;;;;;;;;;;29.90;83.00;;;;;;5131318;27;19982;-80
2023/07/08 11:33:48;;;;;;;;;;;29.90;85.90;;;;;;5132054;27;19968;-81
2023/07/08 11:36:14;;;;;;;;;;;30.00;86.20;;;;;;5113527;27;19923;-78
2023/07/08 11:38:54;;;;;;;;;;;30.10;89.40;;;;;;5115158;27;19971;-78
2023/07/08 11:41:21;;;;;;;;;;;30.20;86.60;;;;;;5131888;27;19931;-77
2023/07/08 11:43:49;;;;;;;;;;;30.20;89.50;;;;;;5115846;27;20264;-81
2023/07/08 11:46:17;;;;;;;;;;;30.30;87.00;;;;;;5132113;27;19927;-78
2023/07/08 11:48:45;;;;;;;;;;;30.50;90.40;;;;;;5114971;28;19919;-80
2023/07/08 11:51:16;;;;;;;;;;;30.70;90.00;;;;;;5131884;27;20381;-86
2023/07/08 11:53:59;;;;;;;;;;;30.70;86.80;;;;;;5132090;27;20006;-80
2023/07/08 11:56:25;;;;;;;;;;;30.70;82.30;;;;;;5130842;28;19919;-83
2023/07/08 11:59:18;;;;;;;;;;;30.80;85.70;;;;;;5131353;28;20018;-78
2023/07/08 12:01:46;;;;;;;;;;;31.00;88.70;;;;;;5114100;28;19977;-86
2023/07/08 12:04:32;;;;;;;;;;;31.10;86.40;;;;;;5113811;28;19930;-80
2023/07/08 12:07:03;;;;;;;;;;;31.20;83.40;;;;;;5132608;27;19923;-79
2023/07/08 12:09:34;;;;;;;;;;;31.30;79.70;;;;;;5114477;28;19959;-77
2023/07/08 12:12:02;;;;;;;;;;;31.50;79.20;;;;;;5131477;28;19923;-82
2023/07/08 12:14:30;;;;;;;;;;;31.50;81.00;;;;;;5131349;28;19923;-79
2023/07/08 12:16:55;;;;;;;;;;;31.50;82.30;;;;;;5131257;28;19920;-81
2023/07/08 12:19:22;;;;;;;;;;;31.60;76.70;;;;;;5131131;28;19933;-82
2023/07/08 12:21:48;;;;;;;;;;;31.60;80.60;;;;;;5131452;28;19997;-82
2023/07/08 12:24:14;;;;;;;;;;;31.80;81.80;;;;;;5130767;28;19927;-81
2023/07/08 12:26:40;;;;;;;;;;;31.90;80.00;;;;;;5114372;28;19920;-81
2023/07/08 12:29:06;;;;;;;;;;;32.00;80.80;;;;;;5131284;28;20369;-82
2023/07/08 12:31:32;;;;;;;;;;;;;;;;;;5131856;28;20419;-81
2023/07/08 12:33:58;;;;;;;;;;;32.30;80.00;;;;;;5131895;28;20029;-78
2023/07/08 12:36:26;;;;;;;;;;;32.40;77.30;;;;;;5130479;28;19923;-76
2023/07/08 12:38:52;;;;;;;;;;;32.50;78.60;;;;;;5130795;28;19950;-84
2023/07/08 12:41:20;;;;;;;;;;;32.60;75.00;;;;;;5131784;28;19923;-79
2023/07/08 12:43:46;;;;;;;;;;;32.60;74.20;;;;;;5131155;28;19924;-78
2023/07/08 12:46:12;;;;;;;;;;;32.60;76.60;;;;;;5132206;27;20401;-77
2023/07/08 12:48:38;;;;;;;;;;;32.80;79.30;;;;;;5134636;27;19954;-81
2023/07/08 12:51:05;;;;;;;;;;;32.90;76.30;;;;;;5100824;28;20296;-79
2023/07/08 12:53:33;;;;;;;;;;;33.20;76.90;;;;;;5131525;27;19934;-78
2023/07/08 12:56:00;;;;;;;;;;;33.40;76.50;;;;;;5113667;28;19920;-77
2023/07/08 12:58:28;;;;;;;;;;;33.60;73.20;;;;;;5096447;28;19923;-81
2023/07/08 13:00:54;;;;;;;;;;;33.70;73.20;;;;;;5113941;28;19924;-78
2023/07/08 13:03:22;;;;;;;;;;;33.90;71.90;;;;;;5114693;28;19919;-79
2023/07/08 13:05:49;;;;;;;;;;;34.00;68.80;;;;;;5131163;27;20415;-81
2023/07/08 13:08:15;;;;;;;;;;;34.00;68.50;;;;;;5116186;28;19924;-78
2023/07/08 13:10:44;;;;;;;;;;;34.10;68.20;;;;;;5097107;28;19935;-79
2023/07/08 13:13:36;;;;;;;;;;;34.20;73.00;;;;;;5113753;28;19957;-78
2023/07/08 13:16:02;;;;;;;;;;;34.40;70.30;;;;;;5110082;28;19920;-77
2023/07/08 13:18:32;;;;;;;;;;;34.60;65.50;;;;;;5134820;27;20737;-80
2023/07/08 13:21:00;;;;;;;;;;;34.60;68.60;;;;;;5133824;27;19968;-80
2023/07/08 13:23:26;;;;;;;;;;;34.70;67.90;;;;;;5136503;27;20390;-77
2023/07/08 13:25:52;;;;;;;;;;;34.80;66.40;;;;;;5138016;27;20406;-80
2023/07/08 13:28:20;;;;;;;;;;;35.00;67.60;;;;;;5120241;27;19968;-79
2023/07/08 13:30:54;;;;;;;;;;;35.10;64.30;;;;;;5137143;27;19937;-80
2023/07/08 13:33:20;;;;;;;;;;;35.10;63.90;;;;;;5137107;27;19919;-81
2023/07/08 13:35:46;;;;;;;;;;;35.30;62.70;;;;;;5137160;27;20306;-83
2023/07/08 13:38:14;;;;;;;;;;;35.50;66.30;;;;;;5155347;27;19972;-77
2023/07/08 13:40:42;;;;;;;;;;;35.60;65.80;;;;;;5136504;27;19988;-79
2023/07/08 13:43:13;;;;;;;;;;;35.80;68.70;;;;;;5136555;27;19925;-80
2023/07/08 13:45:47;;;;;;;;;;;35.90;63.70;;;;;;5136910;27;20023;-78
2023/07/08 13:48:31;;;;;;;;;;;36.00;62.90;;;;;;5136754;27;19919;-80
2023/07/08 13:51:00;;;;;;;;;;;35.90;64.50;;;;;;5132926;27;19924;-80
2023/07/08 13:53:38;;;;;;;;;;;36.00;66.10;;;;;;5134926;27;20010;-78
2023/07/08 13:56:08;;;;;;;;;;;36.10;60.10;;;;;;5133397;27;19924;-79
2023/07/08 13:58:33;;;;;;;;;;;36.10;66.30;;;;;;5132337;27;19923;-78
2023/07/08 14:01:00;;;;;;;;;;;36.10;62.30;;;;;;5133227;27;19927;-80
2023/07/08 14:03:26;;;;;;;;;;;36.10;63.30;;;;;;5133664;27;20280;-81
2023/07/08 14:05:51;;;;;;;;;;;36.20;61.40;;;;;;5123444;27;20014;-77
2023/07/08 14:08:22;;;;;;;;;;;36.30;63.50;;;;;;5133959;27;19933;-78
2023/07/08 14:10:49;;;;;;;;;;;36.50;61.70;;;;;;5115414;27;19928;-78
2023/07/08 14:13:15;;;;;;;;;;;36.60;57.50;;;;;;5123469;27;20018;-77
2023/07/08 14:15:41;;;;;;;;;;;36.60;61.10;;;;;;5136288;27;20493;-83
2023/07/08 14:18:08;;;;;;;;;;;36.80;63.30;;;;;;5136450;27;19962;-78
2023/07/08 14:20:33;;;;;;;;;;;36.90;57.00;;;;;;5135838;27;19965;-79
2023/07/08 14:22:59;;;;;;;;;;;37.00;60.90;;;;;;5118766;27;20340;-81
2023/07/08 14:25:24;;;;;;;;;;;37.20;63.30;;;;;;5153317;27;19927;-80